CheckWX is a tool to help pilots better visualize weather data.  It is not intended as a substitute for an official pre-flight weather briefing.

06:27:58 UTC

06C METAR
Schaumburg Regional Airport
Chicago/Schaumburg, Illinois, USA
Current

33 mins ago

K06C 280555Z AUTO 00000KT 7SM OVC020 00/M02 A3006 RMK AO2 T00001016 10005 20000 400121025
Observed
Jan-28 @ 05:55 UTC
Visibility
7 SM
Flight Rules
MVFR
Cloud Levels
  • Overcast at 2,000' AGL
Temperature
C / 32°F
Dewpoint
-2°C / 28°F
Humidity
87%
Altimeter
30.06" Hg
Pressure
1017.92 hPa
Previous

53 mins ago

K06C 280535Z AUTO 00000KT 7SM OVC022 00/M01 A3006 RMK AO2 T00001015
Observed
Jan-28 @ 05:35 UTC
Visibility
7 SM
Flight Rules
MVFR
Cloud Levels
  • Overcast at 2,200' AGL
Temperature
C / 32°F
Dewpoint
-2°C / 28°F
Humidity
87%
Altimeter
30.06" Hg
Pressure
1017.92 hPa
Previous

1 hour ago

K06C 280515Z AUTO 00000KT 7SM OVC022 00/M01 A3005 RMK AO2 T00001015
Observed
Jan-28 @ 05:15 UTC
Visibility
7 SM
Flight Rules
MVFR
Cloud Levels
  • Overcast at 2,200' AGL
Temperature
C / 32°F
Dewpoint
-2°C / 28°F
Humidity
87%
Altimeter
30.05" Hg
Pressure
1017.62 hPa